createdAt,value
2018-12-16T00:04:14.879Z,60.69
2018-12-16T00:06:44.502Z,60.35
2018-12-16T00:09:14.303Z,60.42
2018-12-16T00:11:44.061Z,60.36
2018-12-16T00:14:13.881Z,60.61
2018-12-16T00:16:46.019Z,59.68
2018-12-16T00:19:16.967Z,60.06
2018-12-16T00:21:46.976Z,60.78
2018-12-16T00:24:16.652Z,61.19
2018-12-16T00:27:03.530Z,60.23
2018-12-16T00:29:33.152Z,60.75
2018-12-16T00:32:02.940Z,59.97
2018-12-16T00:34:32.528Z,60.45
2018-12-16T00:37:02.224Z,59.95
2018-12-16T00:39:31.826Z,60.38
2018-12-16T00:42:01.464Z,60.22
2018-12-16T00:44:32.039Z,60.19
2018-12-16T00:47:01.642Z,59.49
2018-12-16T00:49:31.396Z,60.86
2018-12-16T00:52:01.266Z,60.44
2018-12-16T00:54:32.412Z,60.02
2018-12-16T00:57:02.006Z,60.31
2018-12-16T00:59:31.698Z,60.08
2018-12-16T01:02:01.336Z,60.86
2018-12-16T01:04:31.022Z,60.28
2018-12-16T01:07:00.991Z,60.70
2018-12-16T01:09:30.631Z,60.29
2018-12-16T01:12:00.979Z,60.22
2018-12-16T01:14:30.663Z,60.20
2018-12-16T01:17:00.427Z,59.70
2018-12-16T01:19:35.983Z,59.42
2018-12-16T01:22:05.608Z,59.78
2018-12-16T01:24:35.388Z,59.72
2018-12-16T01:27:05.716Z,59.92
2018-12-16T01:29:35.307Z,59.52
2018-12-16T01:32:04.964Z,59.58
2018-12-16T01:34:34.624Z,59.80
2018-12-16T01:37:04.287Z,60.04
2018-12-16T01:39:33.981Z,60.62
2018-12-16T01:42:03.869Z,59.28
2018-12-16T01:44:33.600Z,59.77
2018-12-16T01:47:03.324Z,59.53
2018-12-16T01:49:32.897Z,59.58
2018-12-16T01:52:02.583Z,59.58
2018-12-16T01:54:32.243Z,60.17
2018-12-16T01:57:02.639Z,60.04
2018-12-16T01:59:34.441Z,60.26
2018-12-16T02:02:04.852Z,60.10
2018-12-16T02:04:35.677Z,59.96
2018-12-16T02:07:05.424Z,58.93
2018-12-16T02:09:35.148Z,59.17
2018-12-16T02:12:04.892Z,59.82
2018-12-16T02:14:35.206Z,59.42
2018-12-16T02:17:04.882Z,59.33
2018-12-16T02:19:34.671Z,59.32
2018-12-16T02:22:04.300Z,59.48
2018-12-16T02:24:34.314Z,60.24
2018-12-16T02:27:03.902Z,59.45
2018-12-16T02:29:33.673Z,59.89
2018-12-16T02:32:03.605Z,59.19
2018-12-16T02:34:33.231Z,59.63
2018-12-16T02:37:02.827Z,60.22
2018-12-16T02:39:33.714Z,60.18
2018-12-16T02:42:03.349Z,59.80
2018-12-16T02:44:33.143Z,60.20
2018-12-16T02:47:02.778Z,59.18
2018-12-16T02:49:32.473Z,59.57
2018-12-16T02:52:02.083Z,59.59
2018-12-16T02:54:31.700Z,59.47
2018-12-16T02:57:01.333Z,59.53
2018-12-16T02:59:30.951Z,59.29
2018-12-16T03:02:02.968Z,59.51
2018-12-16T03:04:32.590Z,59.60
2018-12-16T03:07:02.180Z,60.09
2018-12-16T03:09:31.793Z,60.04
2018-12-16T03:12:02.465Z,59.78
2018-12-16T03:14:32.182Z,59.50
2018-12-16T03:17:02.581Z,60.18
2018-12-16T03:22:34.459Z,60.08
2018-12-16T03:25:04.388Z,59.27
2018-12-16T03:27:34.028Z,59.68
2018-12-16T03:30:04.905Z,59.13
2018-12-16T03:32:34.520Z,58.81
2018-12-16T03:35:09.004Z,59.19
2018-12-16T03:37:38.885Z,59.36
2018-12-16T03:40:13.113Z,59.32
2018-12-16T03:42:48.966Z,59.78
2018-12-16T03:45:18.955Z,60.00
2018-12-16T03:47:48.771Z,59.10
2018-12-16T03:50:18.435Z,59.60
2018-12-16T03:52:48.277Z,59.84
2018-12-16T03:55:18.507Z,60.15
2018-12-16T03:57:50.885Z,59.96
2018-12-16T04:00:21.659Z,60.05
2018-12-16T04:02:53.912Z,60.53
2018-12-16T04:05:26.389Z,60.58
2018-12-16T04:07:55.953Z,59.49
2018-12-16T04:10:25.731Z,60.17
2018-12-16T04:12:57.162Z,60.40
2018-12-16T04:15:31.108Z,59.78
2018-12-16T04:18:00.758Z,60.36
2018-12-16T04:20:30.350Z,59.48
2018-12-16T04:22:59.965Z,60.19
2018-12-16T04:25:29.750Z,60.40
2018-12-16T04:27:59.606Z,59.91
2018-12-16T04:30:29.235Z,60.59
2018-12-16T04:32:59.177Z,60.66
2018-12-16T04:35:28.828Z,60.22
2018-12-16T04:37:58.704Z,61.31
2018-12-16T04:40:28.341Z,61.39
2018-12-16T04:42:58.011Z,61.94
2018-12-16T04:45:27.612Z,63.16
2018-12-16T04:47:57.361Z,64.25
2018-12-16T04:50:27.418Z,65.15
2018-12-16T04:52:57.116Z,65.52
2018-12-16T04:55:26.744Z,66.40
2018-12-16T04:57:56.529Z,66.84
2018-12-16T05:00:26.197Z,68.00
2018-12-16T05:02:57.524Z,69.41
2018-12-16T05:05:28.413Z,69.37
2018-12-16T05:07:58.351Z,70.74
2018-12-16T05:10:31.303Z,70.08
2018-12-16T05:13:00.937Z,70.18
2018-12-16T05:15:35.056Z,70.38
2018-12-16T05:18:12.313Z,70.80
2018-12-16T05:20:42.021Z,70.16
2018-12-16T05:23:11.718Z,70.46
2018-12-16T05:25:41.335Z,71.32
2018-12-16T05:28:11.234Z,70.89
2018-12-16T05:30:40.879Z,71.50
2018-12-16T05:33:10.580Z,72.16
2018-12-16T05:35:40.226Z,72.51
2018-12-16T05:38:12.196Z,71.86
2018-12-16T05:40:41.949Z,71.65
2018-12-16T05:43:11.646Z,71.02
2018-12-16T05:45:41.375Z,71.18
2018-12-16T05:48:11.039Z,71.53
2018-12-16T05:50:40.752Z,72.29
2018-12-16T05:53:10.574Z,71.42
2018-12-16T05:55:40.208Z,71.01
2018-12-16T05:58:10.251Z,71.48
2018-12-16T06:00:40.255Z,71.29
2018-12-16T06:03:09.857Z,71.05
2018-12-16T06:05:39.486Z,71.10
2018-12-16T06:08:09.114Z,70.90
2018-12-16T06:10:38.719Z,71.36
2018-12-16T06:13:08.383Z,70.30
2018-12-16T06:15:38.091Z,70.52
2018-12-16T06:18:07.710Z,70.68
2018-12-16T06:20:37.328Z,71.28
2018-12-16T06:23:08.231Z,70.84
2018-12-16T06:25:37.971Z,71.40
2018-12-16T06:28:07.657Z,71.86
2018-12-16T06:30:37.780Z,71.31
2018-12-16T06:33:07.421Z,71.99
2018-12-16T06:35:37.055Z,71.82
2018-12-16T06:38:06.711Z,71.25
2018-12-16T06:40:36.382Z,71.44
2018-12-16T06:43:06.210Z,71.78
2018-12-16T06:45:37.834Z,71.68
2018-12-16T06:48:07.519Z,71.05
2018-12-16T06:50:37.116Z,71.02
2018-12-16T06:53:06.950Z,71.68
2018-12-16T06:55:43.092Z,71.18
2018-12-16T06:58:08.550Z,71.19
2018-12-16T07:00:38.168Z,72.26
2018-12-16T07:03:11.773Z,71.56
2018-12-16T07:05:41.401Z,71.80
2018-12-16T07:08:11.003Z,72.36
2018-12-16T07:10:41.671Z,71.82
2018-12-16T07:13:12.452Z,71.45
2018-12-16T07:15:42.088Z,71.47
2018-12-16T07:18:12.766Z,72.00
2018-12-16T07:20:42.372Z,72.32
2018-12-16T07:23:12.039Z,72.38
2018-12-16T07:25:41.693Z,71.48
2018-12-16T07:28:11.344Z,71.86
2018-12-16T07:30:41.231Z,71.56
2018-12-16T07:33:10.920Z,71.95
2018-12-16T07:35:42.453Z,71.48
2018-12-16T07:38:12.175Z,71.48
2018-12-16T07:40:42.853Z,71.33
2018-12-16T07:43:12.501Z,71.54
2018-12-16T07:45:47.536Z,71.44
2018-12-16T07:48:17.502Z,71.26
2018-12-16T07:50:47.411Z,71.38
2018-12-16T07:53:17.094Z,71.41
2018-12-16T07:55:47.894Z,71.27
2018-12-16T07:58:18.321Z,71.27
2018-12-16T08:00:49.193Z,70.95
2018-12-16T08:03:20.474Z,70.59
2018-12-16T08:05:50.197Z,71.58
2018-12-16T08:08:20.953Z,70.86
2018-12-16T08:10:51.390Z,70.95
2018-12-16T08:13:21.109Z,70.54
2018-12-16T08:15:50.812Z,70.90
2018-12-16T08:18:21.395Z,71.62
2018-12-16T08:20:51.021Z,71.18
2018-12-16T08:23:24.177Z,71.19
2018-12-16T08:25:53.871Z,71.37
2018-12-16T08:28:24.513Z,71.28
2018-12-16T08:30:54.174Z,71.31
2018-12-16T08:33:26.096Z,71.63
2018-12-16T08:35:55.735Z,72.58
2018-12-16T08:38:25.435Z,72.24
2018-12-16T08:41:02.396Z,72.20
2018-12-16T08:43:32.138Z,72.32
2018-12-16T08:46:01.809Z,71.93
2018-12-16T08:48:33.434Z,71.85
2018-12-16T08:51:03.238Z,71.89
2018-12-16T08:56:30.028Z,72.24
2018-12-16T08:58:59.652Z,72.80
2018-12-16T09:01:31.767Z,72.66
2018-12-16T09:04:01.811Z,73.12
2018-12-16T09:06:35.960Z,73.11
2018-12-16T09:09:08.328Z,73.31
2018-12-16T09:11:39.486Z,73.13
2018-12-16T09:14:09.080Z,72.50
2018-12-16T09:16:38.664Z,73.42
2018-12-16T09:19:08.363Z,72.77
2018-12-16T09:21:38.973Z,72.65
2018-12-16T09:24:14.991Z,72.82
2018-12-16T09:26:44.610Z,73.14
2018-12-16T09:29:14.501Z,73.29
2018-12-16T09:31:44.096Z,73.44
2018-12-16T09:34:14.017Z,73.78
2018-12-16T09:36:48.665Z,73.22
2018-12-16T09:39:24.901Z,73.33
2018-12-16T09:42:01.520Z,73.29
2018-12-16T09:44:31.858Z,74.24
2018-12-16T09:47:02.773Z,74.18
2018-12-16T09:49:32.402Z,73.66
2018-12-16T09:52:12.768Z,74.22
2018-12-16T09:54:44.610Z,73.47
2018-12-16T09:57:16.598Z,74.46
2018-12-16T09:59:49.104Z,74.14
2018-12-16T10:02:18.729Z,74.34
2018-12-16T10:04:50.343Z,73.61
2018-12-16T10:07:20.089Z,73.91
2018-12-16T10:09:53.487Z,74.18
2018-12-16T10:12:23.200Z,73.74
2018-12-16T10:14:56.386Z,74.42
2018-12-16T10:17:26.362Z,73.90
2018-12-16T10:19:56.039Z,75.02
2018-12-16T10:22:25.701Z,74.76
2018-12-16T10:24:57.789Z,74.46
2018-12-16T10:27:29.327Z,74.67
2018-12-16T10:30:03.402Z,74.79
2018-12-16T10:32:34.374Z,74.25
2018-12-16T10:35:04.063Z,74.46
2018-12-16T10:37:33.748Z,73.65
2018-12-16T10:40:03.580Z,74.48
2018-12-16T10:42:34.074Z,74.60
2018-12-16T10:47:52.750Z,75.39
2018-12-16T10:50:24.300Z,74.62
2018-12-16T10:52:54.362Z,75.78
2018-12-16T10:55:25.669Z,75.57
2018-12-16T10:57:56.658Z,75.20
2018-12-16T11:00:32.555Z,75.26
2018-12-16T11:03:03.328Z,74.85
2018-12-16T11:05:34.666Z,74.91
2018-12-16T11:10:49.282Z,74.56
2018-12-16T11:13:19.247Z,74.94
2018-12-16T11:15:50.264Z,75.18
2018-12-16T11:18:21.467Z,75.03
2018-12-16T11:20:52.245Z,75.12
2018-12-16T11:23:25.451Z,74.60
2018-12-16T11:25:56.416Z,74.50
2018-12-16T11:28:26.053Z,74.24
2018-12-16T11:30:56.286Z,74.97
2018-12-16T11:33:25.989Z,74.82
2018-12-16T11:36:00.625Z,74.90
2018-12-16T11:38:31.879Z,75.34
2018-12-16T11:41:04.823Z,74.74
2018-12-16T11:43:34.476Z,74.77
2018-12-16T11:46:04.127Z,75.46
2018-12-16T11:48:33.754Z,75.73
2018-12-16T11:51:03.426Z,77.11
2018-12-16T11:53:34.996Z,76.59
2018-12-16T11:56:04.773Z,76.11
2018-12-16T11:58:34.359Z,76.59
2018-12-16T12:01:06.531Z,77.23
2018-12-16T12:03:37.111Z,77.23
2018-12-16T12:06:09.718Z,77.42
2018-12-16T12:08:46.139Z,77.42
2018-12-16T12:11:16.999Z,77.54
2018-12-16T12:13:48.241Z,78.36
2018-12-16T12:16:20.347Z,77.76
2018-12-16T12:18:59.618Z,77.76
2018-12-16T12:21:30.969Z,77.92
2018-12-16T12:24:03.761Z,77.90
2018-12-16T12:26:38.182Z,78.20
2018-12-16T12:29:09.820Z,77.60
2018-12-16T12:31:41.188Z,77.77
2018-12-16T12:34:12.095Z,77.86
2018-12-16T12:36:43.075Z,77.29
2018-12-16T12:39:18.672Z,76.37
2018-12-16T12:41:49.873Z,77.54
2018-12-16T12:44:20.883Z,77.02
2018-12-16T12:46:54.804Z,77.56
2018-12-16T12:49:25.337Z,77.34
2018-12-16T12:51:59.355Z,77.10
2018-12-16T12:54:31.060Z,77.11
2018-12-16T12:57:04.522Z,78.28
2018-12-16T12:59:36.186Z,78.33
2018-12-16T13:02:12.331Z,78.17
2018-12-16T13:04:43.302Z,77.55
2018-12-16T13:07:15.391Z,79.33
2018-12-16T13:09:51.858Z,79.58
2018-12-16T13:12:25.818Z,79.14
2018-12-16T13:14:58.740Z,79.56
2018-12-16T13:17:32.007Z,78.86
2018-12-16T13:20:03.334Z,79.56
2018-12-16T13:22:34.588Z,79.99
2018-12-16T13:25:23.932Z,79.35
2018-12-16T13:27:55.336Z,79.54
2018-12-16T13:30:27.444Z,79.97
2018-12-16T13:33:00.871Z,79.55
2018-12-16T13:35:39.181Z,79.94
2018-12-16T13:38:15.486Z,79.72
2018-12-16T13:40:48.583Z,80.13
2018-12-16T13:43:24.593Z,78.90
2018-12-16T13:45:57.931Z,79.71
2018-12-16T13:48:29.771Z,79.69
2018-12-16T13:51:05.420Z,78.88
2018-12-16T13:53:36.018Z,79.86
2018-12-16T13:56:10.346Z,79.99
2018-12-16T13:58:42.914Z,80.24
2018-12-16T14:01:17.400Z,79.76
2018-12-16T14:03:50.931Z,81.15
2018-12-16T14:06:21.945Z,80.51
2018-12-16T14:08:56.109Z,80.65
2018-12-16T14:11:28.558Z,80.60
2018-12-16T14:14:02.241Z,80.61
2018-12-16T14:16:37.693Z,81.04
2018-12-16T14:19:10.564Z,81.21
2018-12-16T14:21:43.311Z,81.80
2018-12-16T14:24:15.721Z,81.68
2018-12-16T14:26:47.388Z,80.97
2018-12-16T14:29:21.532Z,81.03
2018-12-16T14:31:56.937Z,81.40
2018-12-16T14:34:30.587Z,80.44
2018-12-16T14:37:02.562Z,81.44
2018-12-16T14:39:36.423Z,81.13
2018-12-16T14:42:07.622Z,80.93
2018-12-16T14:44:39.652Z,81.58
2018-12-16T14:47:10.584Z,81.69
2018-12-16T14:49:45.102Z,81.57
2018-12-16T14:52:19.830Z,81.94
2018-12-16T14:54:53.968Z,82.29
2018-12-16T14:57:27.682Z,81.51
2018-12-16T15:00:02.542Z,81.83
2018-12-16T15:02:34.024Z,81.40
2018-12-16T15:05:09.138Z,81.75
2018-12-16T15:07:41.464Z,82.00
2018-12-16T15:10:16.637Z,82.42
2018-12-16T15:12:48.175Z,82.06
2018-12-16T15:15:19.764Z,80.81
2018-12-16T15:17:53.394Z,81.52
2018-12-16T15:20:25.778Z,81.36
2018-12-16T15:22:57.919Z,81.59
2018-12-16T15:25:27.760Z,81.46
2018-12-16T15:28:00.020Z,81.50
2018-12-16T15:30:31.771Z,81.21
2018-12-16T15:33:03.165Z,81.10
2018-12-16T15:35:34.320Z,81.17
2018-12-16T15:38:05.168Z,81.42
2018-12-16T15:40:36.632Z,80.68
2018-12-16T15:43:08.062Z,81.28
2018-12-16T15:45:41.661Z,80.91
2018-12-16T15:48:13.125Z,81.21
2018-12-16T15:50:48.309Z,81.26
2018-12-16T15:53:19.179Z,81.13
2018-12-16T15:55:48.840Z,81.86
2018-12-16T15:58:18.783Z,81.28
2018-12-16T16:00:50.134Z,81.36
2018-12-16T16:03:21.340Z,81.42
2018-12-16T16:05:52.131Z,81.46
2018-12-16T16:08:26.882Z,81.53
2018-12-16T16:10:58.137Z,81.32
2018-12-16T16:13:27.823Z,81.13
2018-12-16T16:15:59.179Z,81.45
2018-12-16T16:18:30.656Z,81.40
2018-12-16T16:21:01.605Z,80.80
2018-12-16T16:23:36.036Z,80.86
2018-12-16T16:26:16.172Z,81.67
2018-12-16T16:28:47.789Z,81.40
2018-12-16T16:31:19.495Z,81.86
2018-12-16T16:33:51.786Z,81.99
2018-12-16T16:36:22.897Z,81.96
2018-12-16T16:38:54.361Z,80.87
2018-12-16T16:41:24.210Z,81.32
2018-12-16T16:43:57.624Z,81.20
2018-12-16T16:46:30.697Z,81.43
2018-12-16T16:49:02.976Z,82.01
2018-12-16T16:51:37.115Z,81.43
2018-12-16T16:54:08.369Z,81.67
2018-12-16T16:56:42.814Z,81.94
2018-12-16T16:59:19.425Z,81.19
2018-12-16T17:01:50.935Z,81.26
2018-12-16T17:04:25.366Z,81.16
2018-12-16T17:07:00.705Z,81.16
2018-12-16T17:09:34.003Z,80.89
2018-12-16T17:12:09.268Z,80.53
2018-12-16T17:14:40.226Z,80.98
2018-12-16T17:17:11.824Z,81.22
2018-12-16T17:19:46.846Z,81.20
2018-12-16T17:22:18.816Z,81.20
2018-12-16T17:24:48.976Z,81.05
2018-12-16T17:27:19.740Z,81.16
2018-12-16T17:29:49.459Z,80.66
2018-12-16T17:32:19.223Z,80.95
2018-12-16T17:34:49.171Z,80.80
2018-12-16T17:37:21.594Z,81.25
2018-12-16T17:39:51.411Z,80.81
2018-12-16T17:42:21.339Z,80.84
2018-12-16T17:44:50.931Z,81.27
2018-12-16T17:47:21.822Z,81.28
2018-12-16T17:49:51.466Z,81.09
2018-12-16T17:52:21.678Z,81.03
2018-12-16T17:54:51.303Z,80.61
2018-12-16T17:57:20.936Z,81.02
2018-12-16T17:59:53.580Z,81.00
2018-12-16T18:02:23.601Z,80.52
2018-12-16T18:04:53.219Z,80.98
2018-12-16T18:07:22.871Z,80.04
2018-12-16T18:09:52.464Z,80.75
2018-12-16T18:12:23.635Z,81.49
2018-12-16T18:14:53.314Z,80.72
2018-12-16T18:17:22.923Z,80.83
2018-12-16T18:19:52.501Z,80.84
2018-12-16T18:22:22.361Z,80.87
2018-12-16T18:24:53.243Z,81.11
2018-12-16T18:27:25.112Z,80.43
2018-12-16T18:29:54.976Z,80.82
2018-12-16T18:32:24.596Z,81.14
2018-12-16T18:35:00.429Z,80.18
2018-12-16T18:37:30.352Z,80.59
2018-12-16T18:40:00.062Z,80.08
2018-12-16T18:42:33.250Z,80.97
2018-12-16T18:45:03.234Z,80.39
2018-12-16T18:47:34.177Z,80.00
2018-12-16T18:50:07.978Z,79.63
2018-12-16T18:52:39.147Z,80.11
2018-12-16T18:55:11.338Z,80.04
2018-12-16T18:57:45.076Z,80.72
2018-12-16T19:00:16.110Z,80.42
2018-12-16T19:02:52.234Z,79.80
2018-12-16T19:05:25.284Z,79.87
2018-12-16T19:07:56.728Z,80.29
2018-12-16T19:10:33.454Z,78.92
2018-12-16T19:13:08.387Z,79.41
2018-12-16T19:15:43.681Z,79.62
2018-12-16T19:18:14.851Z,79.57
2018-12-16T19:20:45.922Z,78.99
2018-12-16T19:23:19.931Z,79.32
2018-12-16T19:25:53.495Z,78.91
2018-12-16T19:28:24.567Z,78.64
2018-12-16T19:30:57.938Z,78.94
2018-12-16T19:33:30.468Z,79.02
2018-12-16T19:36:02.725Z,78.33
2018-12-16T19:38:33.016Z,79.12
2018-12-16T19:41:03.882Z,79.23
2018-12-16T19:43:37.075Z,78.86
2018-12-16T19:46:10.233Z,79.10
2018-12-16T19:48:43.806Z,78.57
2018-12-16T19:51:16.063Z,78.99
2018-12-16T19:53:49.119Z,78.54
2018-12-16T19:56:19.853Z,78.85
2018-12-16T19:58:52.438Z,78.48
2018-12-16T20:01:23.771Z,79.01
2018-12-16T20:03:59.629Z,78.80
2018-12-16T20:06:37.410Z,78.40
2018-12-16T20:09:11.938Z,78.94
2018-12-16T20:11:44.064Z,79.11
2018-12-16T20:14:17.565Z,79.10
2018-12-16T20:16:50.983Z,79.25
2018-12-16T20:19:22.330Z,78.78
2018-12-16T20:21:51.981Z,78.65
2018-12-16T20:24:22.560Z,79.35
2018-12-16T20:26:53.443Z,78.68
2018-12-16T20:29:24.020Z,79.35
2018-12-16T20:31:55.248Z,79.41
2018-12-16T20:34:25.881Z,79.90
2018-12-16T20:36:57.313Z,79.66
2018-12-16T20:39:28.520Z,79.95
2018-12-16T20:42:00.578Z,79.80
2018-12-16T20:44:31.720Z,79.80
2018-12-16T20:47:01.598Z,79.61
2018-12-16T20:49:31.745Z,79.79
2018-12-16T20:52:01.468Z,79.39
2018-12-16T20:54:34.275Z,79.14
2018-12-16T20:57:07.170Z,79.02
2018-12-16T20:59:37.380Z,79.33
2018-12-16T21:02:09.390Z,79.21
2018-12-16T21:04:39.567Z,79.15
2018-12-16T21:07:09.838Z,79.22
2018-12-16T21:09:39.958Z,79.12
2018-12-16T21:12:18.567Z,79.21
2018-12-16T21:14:54.004Z,79.13
2018-12-16T21:17:29.854Z,79.50
2018-12-16T21:20:02.588Z,79.36
2018-12-16T21:22:34.666Z,79.32
2018-12-16T21:25:06.983Z,79.73
2018-12-16T21:27:40.363Z,78.95
2018-12-16T21:30:12.567Z,79.23
2018-12-16T21:32:42.396Z,79.94
2018-12-16T21:35:12.296Z,79.20
2018-12-16T21:37:41.958Z,80.21
2018-12-16T21:40:17.907Z,80.30
2018-12-16T21:42:47.583Z,79.97
2018-12-16T21:45:17.399Z,80.39
2018-12-16T21:47:46.988Z,80.03
2018-12-16T21:50:17.651Z,81.00
2018-12-16T21:52:47.320Z,80.03
2018-12-16T21:55:18.815Z,80.56
2018-12-16T21:57:48.526Z,80.46
2018-12-16T22:00:20.082Z,80.27
2018-12-16T22:02:49.732Z,80.23
2018-12-16T22:08:04.090Z,80.93
2018-12-16T22:10:33.833Z,80.49
2018-12-16T22:13:04.472Z,80.70
2018-12-16T22:15:34.112Z,80.05
2018-12-16T22:18:05.398Z,80.33
2018-12-16T22:20:35.121Z,80.54
2018-12-16T22:23:08.491Z,80.76
2018-12-16T22:25:40.554Z,80.52
2018-12-16T22:28:10.329Z,80.11
2018-12-16T22:30:39.932Z,80.38
2018-12-16T22:33:09.539Z,80.47
2018-12-16T22:35:39.148Z,80.12
2018-12-16T22:38:08.751Z,79.92
2018-12-16T22:40:38.406Z,80.20
2018-12-16T22:43:08.120Z,79.74
2018-12-16T22:45:37.808Z,79.86
2018-12-16T22:48:07.458Z,80.13
2018-12-16T22:50:37.159Z,80.21
2018-12-16T22:53:07.391Z,80.77
2018-12-16T22:55:38.520Z,79.86
2018-12-16T22:58:08.113Z,80.60
2018-12-16T23:03:30.089Z,79.98
2018-12-16T23:06:02.259Z,80.50
2018-12-16T23:08:31.920Z,80.22
2018-12-16T23:11:01.537Z,80.64
2018-12-16T23:13:31.145Z,80.25
2018-12-16T23:16:03.403Z,79.94
2018-12-16T23:18:33.135Z,79.82
2018-12-16T23:21:03.692Z,80.24
2018-12-16T23:23:34.669Z,79.70
2018-12-16T23:26:05.515Z,79.85
2018-12-16T23:28:36.002Z,80.45
2018-12-16T23:31:08.927Z,80.21
2018-12-16T23:33:38.521Z,80.35
2018-12-16T23:36:08.969Z,80.42
2018-12-16T23:38:38.552Z,80.73
2018-12-16T23:41:08.562Z,80.43
2018-12-16T23:43:41.985Z,80.67
2018-12-16T23:46:11.673Z,79.96
2018-12-16T23:48:41.331Z,79.74
2018-12-16T23:51:11.129Z,80.97
2018-12-16T23:53:41.773Z,80.33
2018-12-16T23:56:11.358Z,79.82
2018-12-16T23:58:42.626Z,80.32
